createdAt,value
2018-06-17T00:01:08.884Z,11.73
2018-06-17T00:03:37.328Z,13.83
2018-06-17T00:06:05.812Z,11.80
2018-06-17T00:08:34.239Z,12.47
2018-06-17T00:11:02.687Z,11.23
2018-06-17T00:13:31.119Z,11.97
2018-06-17T00:15:59.580Z,11.10
2018-06-17T00:18:28.019Z,12.13
2018-06-17T00:20:56.464Z,10.73
2018-06-17T00:23:24.912Z,11.70
2018-06-17T00:25:53.340Z,12.10
2018-06-17T00:28:21.791Z,11.27
2018-06-17T00:30:50.223Z,10.80
2018-06-17T00:33:18.668Z,9.80
2018-06-17T00:35:47.100Z,12.13
2018-06-17T00:38:15.551Z,12.17
2018-06-17T00:40:43.983Z,12.30
2018-06-17T00:43:12.479Z,11.80
2018-06-17T00:45:40.912Z,13.57
2018-06-17T00:48:09.359Z,14.70
2018-06-17T00:50:37.782Z,12.70
2018-06-17T00:53:06.263Z,13.90
2018-06-17T00:55:34.696Z,12.03
2018-06-17T00:58:03.160Z,12.77
2018-06-17T01:00:31.607Z,13.37
2018-06-17T01:03:00.080Z,13.17
2018-06-17T01:05:28.505Z,12.77
2018-06-17T01:07:56.943Z,12.13
2018-06-17T01:10:25.375Z,10.93
2018-06-17T01:12:53.803Z,13.47
2018-06-17T01:15:22.252Z,14.10
2018-06-17T01:17:50.669Z,13.40
2018-06-17T01:20:18.806Z,13.23
2018-06-17T01:22:47.235Z,12.43
2018-06-17T01:25:15.672Z,14.13
2018-06-17T01:27:44.080Z,14.60
2018-06-17T01:30:12.557Z,13.10
2018-06-17T01:32:40.988Z,13.83
2018-06-17T01:35:09.420Z,12.27
2018-06-17T01:37:37.836Z,13.47
2018-06-17T01:40:06.271Z,18.03
2018-06-17T01:42:41.007Z,14.27
2018-06-17T01:45:09.440Z,13.70
2018-06-17T01:47:37.851Z,15.40
2018-06-17T01:50:06.349Z,13.47
2018-06-17T01:52:34.759Z,14.23
2018-06-17T01:55:03.235Z,14.53
2018-06-17T01:57:31.639Z,13.50
2018-06-17T02:00:00.104Z,12.63
2018-06-17T02:02:28.561Z,14.03
2018-06-17T02:06:03.001Z,13.23
2018-06-17T02:09:35.505Z,12.57
2018-06-17T02:12:09.200Z,12.93
2018-06-17T02:14:42.947Z,13.20
2018-06-17T02:17:11.375Z,11.80
2018-06-17T02:19:39.804Z,13.27
2018-06-17T02:22:08.271Z,16.00
2018-06-17T02:24:36.746Z,15.40
2018-06-17T02:27:05.290Z,12.37
2018-06-17T02:29:33.715Z,12.03
2018-06-17T02:32:02.161Z,10.60
2018-06-17T02:34:30.608Z,12.60
2018-06-17T02:36:59.056Z,12.77
2018-06-17T02:39:27.493Z,11.27
2018-06-17T02:41:55.931Z,12.97
2018-06-17T02:44:24.360Z,13.00
2018-06-17T02:46:58.165Z,13.40
2018-06-17T02:49:32.167Z,12.53
2018-06-17T02:52:06.079Z,12.20
2018-06-17T02:54:40.251Z,12.13
2018-06-17T02:57:10.088Z,15.10
2018-06-17T02:59:38.653Z,12.63
2018-06-17T03:02:07.280Z,13.07
2018-06-17T03:04:35.711Z,12.60
2018-06-17T03:07:04.197Z,13.83
2018-06-17T03:09:32.640Z,15.60
2018-06-17T03:12:01.061Z,17.30
2018-06-17T03:14:29.506Z,13.37
2018-06-17T03:16:57.938Z,14.40
2018-06-17T03:19:26.394Z,12.47
2018-06-17T03:21:54.813Z,12.00
2018-06-17T03:25:31.376Z,12.00
2018-06-17T03:28:05.063Z,11.57
2018-06-17T03:30:38.583Z,12.60
2018-06-17T03:33:12.444Z,12.70
2018-06-17T03:35:46.359Z,13.13
2018-06-17T03:38:14.802Z,11.67
2018-06-17T03:40:43.243Z,12.53
2018-06-17T03:43:11.655Z,12.57
2018-06-17T03:45:39.786Z,12.73
2018-06-17T03:48:08.268Z,12.60
2018-06-17T03:50:36.695Z,13.20
2018-06-17T03:53:05.100Z,13.97
2018-06-17T03:55:33.677Z,12.47
2018-06-17T03:58:02.099Z,15.67
2018-06-17T04:00:30.528Z,20.53
2018-06-17T04:02:58.956Z,12.43
2018-06-17T04:05:29.149Z,14.83
2018-06-17T04:07:59.044Z,13.77
2018-06-17T04:10:27.480Z,13.90
2018-06-17T04:12:56.108Z,13.70
2018-06-17T04:15:24.541Z,13.10
2018-06-17T04:17:52.952Z,12.73
2018-06-17T04:20:21.493Z,14.13
2018-06-17T04:22:49.911Z,13.73
2018-06-17T04:25:18.810Z,14.47
2018-06-17T04:27:47.183Z,19.33
2018-06-17T04:30:15.600Z,12.63
2018-06-17T04:32:44.036Z,11.53
2018-06-17T04:35:12.457Z,12.60
2018-06-17T04:37:40.980Z,12.20
2018-06-17T04:40:09.532Z,10.70
2018-06-17T04:42:37.976Z,11.53
2018-06-17T04:45:06.426Z,10.17
2018-06-17T04:47:34.852Z,9.80
2018-06-17T04:50:03.257Z,9.73
2018-06-17T04:52:31.707Z,12.33
2018-06-17T04:55:00.117Z,9.50
2018-06-17T04:57:28.551Z,10.30
2018-06-17T04:59:56.985Z,11.57
2018-06-17T05:02:25.452Z,9.30
2018-06-17T05:04:53.849Z,10.00
2018-06-17T05:07:22.278Z,8.67
2018-06-17T05:09:50.694Z,14.13
2018-06-17T05:12:19.152Z,9.17
2018-06-17T05:14:47.557Z,10.20
2018-06-17T05:17:15.972Z,10.43
2018-06-17T05:19:44.392Z,8.60
2018-06-17T05:22:12.804Z,8.10
2018-06-17T05:24:41.250Z,10.03
2018-06-17T05:27:09.649Z,9.10
2018-06-17T05:29:38.076Z,9.33
2018-06-17T05:32:06.641Z,9.70
2018-06-17T05:34:35.064Z,7.87
2018-06-17T05:37:03.509Z,8.70
2018-06-17T05:39:31.651Z,7.97
2018-06-17T05:42:00.053Z,8.20
2018-06-17T05:44:28.470Z,8.57
2018-06-17T05:46:56.861Z,7.57
2018-06-17T05:49:25.288Z,8.10
2018-06-17T05:51:53.684Z,9.77
2018-06-17T05:54:22.097Z,9.83
2018-06-17T05:56:50.500Z,10.17
2018-06-17T05:59:18.920Z,10.70
2018-06-17T06:01:47.327Z,10.10
2018-06-17T06:04:15.772Z,10.43
2018-06-17T06:06:44.181Z,10.20
2018-06-17T06:09:13.088Z,10.50
2018-06-17T06:11:42.569Z,8.83
2018-06-17T06:14:11.013Z,11.37
2018-06-17T06:16:39.415Z,12.67
2018-06-17T06:19:07.881Z,10.67
2018-06-17T06:21:36.319Z,9.63
2018-06-17T06:24:04.745Z,13.33
2018-06-17T06:26:33.176Z,10.77
2018-06-17T06:29:01.580Z,9.20
2018-06-17T06:31:30.009Z,10.83
2018-06-17T06:33:58.424Z,7.57
2018-06-17T06:36:26.846Z,9.97
2018-06-17T06:38:55.245Z,10.00
2018-06-17T06:41:23.676Z,8.37
2018-06-17T06:43:52.075Z,9.57
2018-06-17T06:46:20.532Z,9.77
2018-06-17T06:48:48.955Z,12.17
2018-06-17T06:51:17.374Z,9.00
2018-06-17T06:53:45.516Z,9.03
2018-06-17T06:56:13.951Z,10.83
2018-06-17T06:58:42.352Z,9.73
2018-06-17T07:01:10.807Z,10.70
2018-06-17T07:03:50.535Z,8.80
2018-06-17T07:06:30.202Z,11.27
2018-06-17T07:09:13.603Z,8.67
2018-06-17T07:11:42.045Z,7.20
2018-06-17T07:14:10.450Z,8.97
2018-06-17T07:16:50.122Z,8.23
2018-06-17T07:19:18.553Z,7.13
2018-06-17T07:21:46.983Z,8.10
2018-06-17T07:24:15.388Z,8.40
2018-06-17T07:26:56.264Z,7.30
2018-06-17T07:29:37.432Z,6.57
2018-06-17T07:32:05.911Z,6.80
2018-06-17T07:34:34.331Z,7.60
2018-06-17T07:37:03.007Z,7.57
2018-06-17T07:41:41.419Z,5.00
2018-06-17T07:44:09.859Z,6.03
2018-06-17T07:46:38.281Z,7.20
2018-06-17T07:49:28.051Z,4.93
2018-06-17T07:52:09.259Z,8.30
2018-06-17T07:54:38.773Z,6.07
2018-06-17T07:57:07.748Z,7.03
2018-06-17T07:59:36.559Z,6.23
2018-06-17T08:02:05.849Z,4.90
2018-06-17T08:04:34.293Z,11.70
2018-06-17T08:07:02.726Z,7.20
2018-06-17T08:09:30.855Z,4.23
2018-06-17T08:11:59.799Z,5.77
2018-06-17T08:14:27.934Z,3.60
2018-06-17T08:16:56.860Z,4.27
2018-06-17T08:19:26.480Z,6.47
2018-06-17T08:21:55.664Z,3.63
2018-06-17T08:24:24.389Z,11.70
2018-06-17T08:26:52.906Z,5.93
2018-06-17T08:29:21.317Z,7.60
2018-06-17T08:31:49.740Z,7.30
2018-06-17T08:34:18.140Z,6.10
2018-06-17T08:36:46.566Z,6.73
2018-06-17T08:39:18.012Z,4.20
2018-06-17T08:41:46.460Z,5.00
2018-06-17T08:44:15.805Z,4.70
2018-06-17T08:46:44.969Z,11.50
2018-06-17T08:49:13.872Z,4.17
2018-06-17T08:51:42.323Z,4.73
2018-06-17T08:54:10.780Z,7.03
2018-06-17T08:56:39.292Z,4.17
2018-06-17T08:59:07.759Z,6.03
2018-06-17T09:01:36.176Z,6.60
2018-06-17T09:04:04.636Z,5.93
2018-06-17T09:06:33.069Z,5.80
2018-06-17T09:09:01.470Z,4.20
2018-06-17T09:11:29.884Z,6.63
2018-06-17T09:13:58.292Z,9.47
2018-06-17T09:16:26.718Z,2.83
2018-06-17T09:18:55.120Z,5.47
2018-06-17T09:21:23.556Z,3.00
2018-06-17T09:23:51.964Z,3.40
2018-06-17T09:26:20.369Z,5.60
2018-06-17T09:28:48.793Z,5.10
2018-06-17T09:31:17.203Z,8.20
2018-06-17T09:33:45.653Z,4.20
2018-06-17T09:36:14.668Z,3.87
2018-06-17T09:38:43.088Z,2.70
2018-06-17T09:41:11.504Z,4.13
2018-06-17T09:43:39.929Z,7.07
2018-06-17T09:46:08.334Z,5.00
2018-06-17T09:48:36.756Z,4.67
2018-06-17T09:51:05.180Z,3.30
2018-06-17T09:53:33.600Z,2.93
2018-06-17T09:56:02.001Z,5.23
2018-06-17T09:58:30.427Z,3.20
2018-06-17T10:00:58.851Z,3.13
2018-06-17T10:03:27.296Z,4.63
2018-06-17T10:05:55.733Z,7.13
2018-06-17T10:08:24.155Z,3.60
2018-06-17T10:10:55.580Z,3.63
2018-06-17T10:13:26.032Z,3.10
2018-06-17T10:15:54.640Z,7.20
2018-06-17T10:18:23.716Z,5.30
2018-06-17T10:20:52.288Z,3.30
2018-06-17T10:23:21.000Z,6.33
2018-06-17T10:25:49.419Z,4.83
2018-06-17T10:28:18.589Z,3.30
2018-06-17T10:30:48.259Z,2.30
2018-06-17T10:33:16.692Z,4.13
2018-06-17T10:35:45.739Z,2.80
2018-06-17T10:38:14.170Z,5.70
2018-06-17T10:40:42.576Z,3.13
2018-06-17T10:43:15.329Z,4.70
2018-06-17T10:45:43.872Z,2.53
2018-06-17T10:48:12.792Z,2.80
2018-06-17T10:50:41.259Z,2.20
2018-06-17T10:53:09.452Z,1.97
2018-06-17T10:55:37.995Z,3.50
2018-06-17T10:58:06.467Z,5.23
2018-06-17T11:00:34.913Z,3.27
2018-06-17T11:03:03.403Z,2.47
2018-06-17T11:05:31.842Z,5.00
2018-06-17T11:08:00.278Z,5.10
2018-06-17T11:10:28.718Z,2.50
2018-06-17T11:12:57.166Z,4.30
2018-06-17T11:15:25.568Z,1.87
2018-06-17T11:17:53.989Z,3.20
2018-06-17T11:20:22.437Z,7.13
2018-06-17T11:22:50.839Z,1.50
2018-06-17T11:25:19.265Z,1.60
2018-06-17T11:27:47.669Z,1.70
2018-06-17T11:30:16.108Z,1.73
2018-06-17T11:32:44.516Z,2.70
2018-06-17T11:35:12.940Z,3.50
2018-06-17T11:37:41.337Z,2.63
2018-06-17T11:40:09.752Z,1.83
2018-06-17T11:42:38.180Z,3.50
2018-06-17T11:45:06.576Z,1.73
2018-06-17T11:47:35.008Z,1.90
2018-06-17T11:50:03.474Z,2.00
2018-06-17T11:52:31.907Z,1.50
2018-06-17T11:55:00.025Z,2.70
2018-06-17T11:57:28.456Z,1.80
2018-06-17T11:59:56.859Z,1.50
2018-06-17T12:02:25.275Z,2.20
2018-06-17T12:04:53.687Z,2.00
2018-06-17T12:07:22.107Z,1.73
2018-06-17T12:09:50.516Z,1.23
2018-06-17T12:12:18.940Z,1.40
2018-06-17T12:14:47.383Z,1.63
2018-06-17T12:17:15.775Z,1.43
2018-06-17T12:19:44.179Z,3.03
2018-06-17T12:22:12.603Z,1.93
2018-06-17T12:24:41.004Z,1.40
2018-06-17T12:27:09.415Z,1.17
2018-06-17T12:29:37.812Z,1.37
2018-06-17T12:32:06.373Z,1.30
2018-06-17T12:34:34.796Z,1.07
2018-06-17T12:37:03.232Z,2.67
2018-06-17T12:39:31.652Z,1.50
2018-06-17T12:42:00.078Z,1.67
2018-06-17T12:44:28.496Z,2.93
2018-06-17T12:46:56.897Z,1.60
2018-06-17T12:49:25.340Z,1.70
2018-06-17T12:51:53.761Z,1.83
2018-06-17T12:54:22.184Z,1.80
2018-06-17T12:56:50.588Z,2.17
2018-06-17T12:59:19.016Z,1.13
2018-06-17T13:01:47.436Z,1.07
2018-06-17T13:04:15.910Z,1.10
2018-06-17T13:06:44.315Z,1.37
2018-06-17T13:09:12.948Z,1.20
2018-06-17T13:11:41.365Z,1.00
2018-06-17T13:14:09.812Z,2.13
2018-06-17T13:16:38.229Z,5.53
2018-06-17T13:19:06.867Z,1.43
2018-06-17T13:21:35.332Z,3.73
2018-06-17T13:24:03.801Z,1.50
2018-06-17T13:26:32.317Z,1.63
2018-06-17T13:29:00.737Z,2.83
2018-06-17T13:31:29.141Z,2.97
2018-06-17T13:33:57.583Z,1.00
2018-06-17T13:36:25.991Z,1.70
2018-06-17T13:38:54.404Z,1.60
2018-06-17T13:41:22.879Z,2.77
2018-06-17T13:43:51.277Z,2.77
2018-06-17T13:46:19.708Z,2.63
2018-06-17T13:48:48.121Z,1.70
2018-06-17T13:51:16.580Z,2.37
2018-06-17T13:53:44.994Z,3.00
2018-06-17T13:56:13.420Z,1.90
2018-06-17T13:58:48.636Z,1.17
2018-06-17T14:01:17.094Z,1.40
2018-06-17T14:03:45.533Z,3.27
2018-06-17T14:06:13.960Z,1.27
2018-06-17T14:08:42.372Z,2.53
2018-06-17T14:11:10.803Z,2.83
2018-06-17T14:13:39.204Z,3.53
2018-06-17T14:16:07.652Z,1.90
2018-06-17T14:18:36.056Z,1.40
2018-06-17T14:21:04.580Z,1.50
2018-06-17T14:23:33.003Z,1.37
2018-06-17T14:26:01.456Z,1.97
2018-06-17T14:28:29.874Z,1.20
2018-06-17T14:30:58.308Z,2.50
2018-06-17T14:33:26.716Z,2.17
2018-06-17T14:35:55.299Z,11.73
2018-06-17T14:38:23.700Z,7.07
2018-06-17T14:40:57.513Z,1.67
2018-06-17T14:43:31.396Z,1.60
2018-06-17T14:46:05.040Z,1.80
2018-06-17T14:48:38.708Z,1.50
2018-06-17T14:51:12.449Z,1.73
2018-06-17T14:53:40.855Z,1.43
2018-06-17T14:56:09.295Z,1.80
2018-06-17T14:58:37.714Z,2.20
2018-06-17T15:01:06.175Z,2.83
2018-06-17T15:03:34.656Z,3.70
2018-06-17T15:06:03.053Z,2.53
2018-06-17T15:08:31.473Z,2.10
2018-06-17T15:10:59.896Z,2.60
2018-06-17T15:13:28.334Z,2.47
2018-06-17T15:15:56.857Z,2.63
2018-06-17T15:18:25.241Z,2.50
2018-06-17T15:20:53.721Z,2.37
2018-06-17T15:23:22.148Z,1.70
2018-06-17T15:25:50.548Z,1.90
2018-06-17T15:28:18.963Z,2.20
2018-06-17T15:30:47.389Z,2.63
2018-06-17T15:33:21.239Z,3.63
2018-06-17T15:36:54.917Z,2.80
2018-06-17T15:39:28.584Z,3.00
2018-06-17T15:41:57.008Z,2.60
2018-06-17T15:44:25.427Z,3.73
2018-06-17T15:46:53.831Z,1.80
2018-06-17T15:49:22.697Z,3.70
2018-06-17T15:51:51.111Z,2.30
2018-06-17T15:54:19.576Z,3.27
2018-06-17T15:56:47.980Z,3.07
2018-06-17T15:59:16.391Z,2.00
2018-06-17T16:01:44.798Z,3.43
2018-06-17T16:04:13.259Z,2.00
2018-06-17T16:06:41.681Z,5.40
2018-06-17T16:09:11.569Z,3.20
2018-06-17T16:11:45.196Z,5.60
2018-06-17T16:14:18.968Z,8.40
2018-06-17T16:16:52.640Z,5.83
2018-06-17T16:19:26.376Z,6.83
2018-06-17T16:21:54.809Z,3.43
2018-06-17T16:24:23.205Z,4.97
2018-06-17T16:26:51.659Z,2.80
2018-06-17T16:29:20.169Z,3.37
2018-06-17T16:31:48.616Z,6.23
2018-06-17T16:34:17.013Z,4.60
2018-06-17T16:36:45.440Z,4.83
2018-06-17T16:39:13.842Z,2.33
2018-06-17T16:41:42.655Z,2.67
2018-06-17T16:44:11.730Z,2.33
2018-06-17T16:46:41.161Z,2.80
2018-06-17T16:49:09.816Z,1.93
2018-06-17T16:51:43.524Z,2.60
2018-06-17T16:54:17.220Z,3.90
2018-06-17T16:56:50.951Z,3.00
2018-06-17T16:59:24.652Z,7.50
2018-06-17T17:01:53.076Z,2.33
2018-06-17T17:04:21.496Z,3.57
2018-06-17T17:06:49.907Z,4.83
2018-06-17T17:09:18.307Z,3.33
2018-06-17T17:11:46.740Z,2.40
2018-06-17T17:14:15.131Z,2.13
2018-06-17T17:16:43.533Z,3.37
2018-06-17T17:19:11.969Z,3.17
2018-06-17T17:21:40.378Z,3.97
2018-06-17T17:24:08.790Z,5.83
2018-06-17T17:26:37.192Z,2.67
2018-06-17T17:29:05.659Z,2.50
2018-06-17T17:31:39.576Z,2.80
2018-06-17T17:34:13.367Z,2.53
2018-06-17T17:36:47.137Z,3.17
2018-06-17T17:39:20.972Z,2.10
2018-06-17T17:41:49.448Z,5.13
2018-06-17T17:44:17.903Z,3.60
2018-06-17T17:46:51.656Z,2.33
2018-06-17T17:49:20.084Z,3.07
2018-06-17T17:51:48.490Z,2.00
2018-06-17T17:54:16.941Z,3.20
2018-06-17T17:56:45.334Z,2.50
2018-06-17T17:59:13.761Z,2.17
2018-06-17T18:01:42.173Z,3.40
2018-06-17T18:04:17.044Z,2.77
2018-06-17T18:06:45.436Z,3.77
2018-06-17T18:09:13.853Z,3.30
2018-06-17T18:11:42.261Z,2.33
2018-06-17T18:14:10.675Z,2.83
2018-06-17T18:16:38.796Z,2.80
2018-06-17T18:19:07.215Z,4.27
2018-06-17T18:21:35.605Z,2.80
2018-06-17T18:24:04.058Z,2.40
2018-06-17T18:26:37.784Z,5.63
2018-06-17T18:30:15.649Z,8.03
2018-06-17T18:32:49.568Z,3.40
2018-06-17T18:35:23.324Z,4.63
2018-06-17T18:37:51.715Z,4.40
2018-06-17T18:40:20.156Z,3.47
2018-06-17T18:42:48.571Z,3.57
2018-06-17T18:45:16.999Z,3.03
2018-06-17T18:47:45.398Z,3.53
2018-06-17T18:50:13.825Z,3.63
2018-06-17T18:52:42.238Z,3.87
2018-06-17T18:55:10.694Z,5.13
2018-06-17T18:57:38.783Z,4.57
2018-06-17T19:00:07.767Z,3.40
2018-06-17T19:02:36.186Z,3.67
2018-06-17T19:05:04.672Z,3.37
2018-06-17T19:07:33.115Z,3.80
2018-06-17T19:10:06.949Z,3.87
2018-06-17T19:12:40.832Z,3.60
2018-06-17T19:15:14.561Z,3.40
2018-06-17T19:18:18.077Z,3.83
2018-06-17T19:20:46.565Z,4.50
2018-06-17T19:23:14.971Z,4.93
2018-06-17T19:25:43.383Z,2.90
2018-06-17T19:28:11.787Z,3.47
2018-06-17T19:30:40.211Z,4.00
2018-06-17T19:33:08.620Z,4.23
2018-06-17T19:35:37.021Z,3.10
2018-06-17T19:38:05.639Z,2.80
2018-06-17T19:40:34.047Z,3.13
2018-06-17T19:43:02.484Z,5.80
2018-06-17T19:45:30.976Z,3.30
2018-06-17T19:47:59.372Z,3.10
2018-06-17T19:50:33.088Z,3.33
2018-06-17T19:53:06.724Z,3.07
2018-06-17T19:55:40.608Z,4.57
2018-06-17T19:58:14.335Z,3.80
2018-06-17T20:00:44.259Z,3.90
2018-06-17T20:03:12.724Z,7.63
2018-06-17T20:05:41.124Z,3.97
2018-06-17T20:08:09.254Z,3.57
2018-06-17T20:10:37.666Z,4.63
2018-06-17T20:13:06.099Z,3.30
2018-06-17T20:15:34.513Z,3.37
2018-06-17T20:18:02.936Z,4.00
2018-06-17T20:20:32.181Z,6.90
2018-06-17T20:23:00.620Z,3.93
2018-06-17T20:25:29.056Z,3.27
2018-06-17T20:27:57.476Z,3.80
2018-06-17T20:30:25.878Z,3.07
2018-06-17T20:32:59.676Z,4.00
2018-06-17T20:35:33.445Z,3.47
2018-06-17T20:38:07.149Z,4.10
2018-06-17T20:40:40.851Z,5.43
2018-06-17T20:43:14.611Z,4.07
2018-06-17T20:45:43.032Z,9.13
2018-06-17T20:48:11.455Z,4.10
2018-06-17T20:50:39.851Z,5.10
2018-06-17T20:53:08.285Z,4.33
2018-06-17T20:55:36.691Z,4.03
2018-06-17T20:58:05.125Z,3.90
2018-06-17T21:00:33.608Z,7.63
2018-06-17T21:03:02.046Z,9.13
2018-06-17T21:05:30.473Z,3.23
2018-06-17T21:07:58.912Z,3.40
2018-06-17T21:10:27.304Z,3.53
2018-06-17T21:12:55.780Z,3.93
2018-06-17T21:15:24.196Z,4.30
2018-06-17T21:17:52.610Z,3.30
2018-06-17T21:20:26.528Z,2.80
2018-06-17T21:23:00.244Z,3.70
2018-06-17T21:25:34.039Z,3.27
2018-06-17T21:28:02.871Z,4.77
2018-06-17T21:30:31.273Z,4.43
2018-06-17T21:32:59.668Z,3.70
2018-06-17T21:35:28.097Z,3.97
2018-06-17T21:37:56.495Z,3.80
2018-06-17T21:40:24.924Z,3.90
2018-06-17T21:42:53.324Z,4.27
2018-06-17T21:45:21.740Z,3.77
2018-06-17T21:47:50.167Z,3.90
2018-06-17T21:50:18.583Z,3.50
2018-06-17T21:52:46.981Z,3.73
2018-06-17T21:55:15.403Z,5.23
2018-06-17T21:57:43.821Z,4.13
2018-06-17T22:00:12.240Z,4.93
2018-06-17T22:02:43.522Z,4.07
2018-06-17T22:05:12.244Z,3.93
2018-06-17T22:07:46.131Z,4.17
2018-06-17T22:10:19.766Z,3.90
2018-06-17T22:12:53.636Z,4.87
2018-06-17T22:15:27.597Z,4.23
2018-06-17T22:17:56.136Z,5.40
2018-06-17T22:20:24.582Z,5.40
2018-06-17T22:22:53.143Z,4.47
2018-06-17T22:25:21.576Z,4.93
2018-06-17T22:27:49.681Z,4.47
2018-06-17T22:30:18.137Z,5.37
2018-06-17T22:32:46.641Z,7.83
2018-06-17T22:35:15.324Z,4.87
2018-06-17T22:37:43.725Z,5.10
2018-06-17T22:40:12.164Z,4.37
2018-06-17T22:42:40.569Z,3.50
2018-06-17T22:45:09.038Z,4.53
2018-06-17T22:47:42.955Z,4.90
2018-06-17T22:50:11.388Z,4.43
2018-06-17T22:52:51.804Z,4.20
2018-06-17T22:55:20.239Z,4.07
2018-06-17T22:57:54.050Z,4.90
2018-06-17T23:00:27.809Z,4.50
2018-06-17T23:03:01.588Z,4.90
2018-06-17T23:05:35.327Z,5.07
2018-06-17T23:08:09.080Z,4.13
2018-06-17T23:10:37.557Z,4.27
2018-06-17T23:13:06.148Z,4.30
2018-06-17T23:15:34.568Z,4.43
2018-06-17T23:18:03.037Z,5.70
2018-06-17T23:20:31.471Z,5.13
2018-06-17T23:22:59.895Z,3.87
2018-06-17T23:25:28.304Z,4.60
2018-06-17T23:27:56.739Z,5.03
2018-06-17T23:30:25.171Z,4.80
2018-06-17T23:32:53.596Z,4.60
2018-06-17T23:35:21.996Z,4.20
2018-06-17T23:37:50.412Z,3.50
2018-06-17T23:40:18.839Z,4.53
2018-06-17T23:42:47.260Z,5.23
2018-06-17T23:45:15.668Z,6.23
2018-06-17T23:47:49.352Z,4.17
2018-06-17T23:50:22.979Z,4.70
2018-06-17T23:52:56.660Z,4.77
2018-06-17T23:55:30.271Z,4.97
2018-06-17T23:57:58.703Z,4.77
